Portada
METAR-TAF:

METAR-TAF

Aeropuertos :

Aeropuerto Ejecutivo Gatineau-Ottawa

Gatineau, Quebec, Canadá

latitud: 45-31N, longitud: 075-34W, altitud: 64 m

Observación

El informe se hizo hace 41 minutos, a las 01:00 UTC
Viento 4 kt del noreste
Temperatura -15°C
Humedad 78%
Presión 1026 hPa
Visibilidad: 24.1 km
Escasas nubes a una altura de 22000 ft

METAR: CYND 130100Z 05004KT 15SM FEW220 M15/M18 A3030 RMK CI2 SLP267

Hora: 20:41 (01:41 UTC)

Pronóstico

El informe se hizo hace 2 horas y 3 minutos, a las 23:38 UTC
Pronóstico válido del 13 a las 00 UTC al 13 a las 02 UTC
Viento 5 kt del este-noreste
Visibilidad: 10 km
Escasas nubes a una altura de 20000 ft

TAF: CYND 122338Z 1300/1302 06005KT P6SM FEW200 RMK NXT FCST WILL BE ISSUED AT 131345Z

Observaciones y pronósticos meteorológicos de más de 4000 aeropuertos (mensajes METAR y TAF).

Los puntos amarillos y rojos representan las estaciones disponibles.

Ponga el ratón en el punto deseado para ver el nombre de la estación.

Haga clic para ver las observaciones y los pronósticos meteorológicos.

Para cambiar el mapa : haga clic en los botones verdes con una cruz de color negro para hacer un zoom, en el botón verde con un guión para alejar o en las flechas verdes para mapas adyacentes.


METAR-TAF: